Time;durP1;ratioP1;P1;durP2;ratioP2;P2;SDS_P1;SDS_P2;PMS_P1;PMS_P2;Temp;Humidity;BMP_temperature;BMP_pressure;BME280_temperature;BME280_humidity;BME280_pressure;Samples;Min_cycle;Max_cycle;Signal;HPM_P1;HPM_P2
2022/12/13 00:01:57;;;;;;;11.45;7.13;;;;;;;18.72;43.08;100616.19;5032998;28;20049;-76
2022/12/13 00:04:25;;;;;;;10.63;7.13;;;;;;;18.73;42.69;100618.72;5033193;28;20401;-76
2022/12/13 00:06:53;;;;;;;11.38;7.28;;;;;;;18.72;43.05;100617.03;5032010;28;20048;-76
2022/12/13 00:09:22;;;;;;;10.10;7.32;;;;;;;18.73;42.77;100616.03;5032914;28;20481;-76
2022/12/13 00:11:51;;;;;;;9.98;7.10;;;;;;;18.71;42.97;100615.31;5033337;28;20049;-80
2022/12/13 00:14:18;;;;;;;8.65;7.03;;;;;;;18.73;43.03;100616.03;5033287;28;20046;-76
2022/12/13 00:16:47;;;;;;;11.75;7.70;;;;;;;18.74;42.22;100620.41;5033205;28;20046;-76
2022/12/13 00:19:15;;;;;;;8.77;7.18;;;;;;;18.73;42.99;100616.03;5036406;28;20049;-76
2022/12/13 00:21:43;;;;;;;11.25;7.13;;;;;;;18.73;43.39;100608.00;5035725;28;20053;-76
2022/12/13 00:24:11;;;;;;;8.73;6.82;;;;;;;18.73;43.18;100607.13;5035636;28;20501;-76
2022/12/13 00:26:38;;;;;;;8.68;6.93;;;;;;;18.73;43.08;100608.00;5036995;28;20053;-76
2022/12/13 00:29:07;;;;;;;8.18;6.68;;;;;;;18.74;43.11;100608.84;5037016;28;20057;-76
2022/12/13 00:31:35;;;;;;;8.80;6.80;;;;;;;18.74;42.65;100600.78;5037039;28;20045;-75
2022/12/13 00:34:23;;;;;;;9.65;7.53;;;;;;;18.73;42.64;100591.91;5036845;28;20041;-75
2022/12/13 00:36:53;;;;;;;11.27;7.35;;;;;;;18.73;42.46;100591.91;5036739;28;20474;-75
2022/12/13 00:39:21;;;;;;;8.23;6.78;;;;;;;18.73;42.82;100591.91;5036844;28;20050;-75
2022/12/13 00:41:48;;;;;;;7.95;6.18;;;;;;;18.72;42.74;100581.31;5036683;28;20057;-74
2022/12/13 00:44:18;;;;;;;9.10;6.55;;;;;;;18.73;42.50;100573.13;5036572;28;20046;-74
2022/12/13 00:46:46;;;;;;;9.23;7.85;;;;;;;18.72;42.47;100567.91;5036562;28;20397;-75
2022/12/13 00:49:13;;;;;;;7.97;6.13;;;;;;;18.73;42.38;100558.88;5035421;28;20045;-74
2022/12/13 00:51:40;;;;;;;8.95;6.38;;;;;;;18.71;42.53;100566.19;5036382;28;20072;-75
2022/12/13 00:54:09;;;;;;;8.55;6.95;;;;;;;18.72;42.52;100557.19;5036585;28;20046;-75
2022/12/13 00:56:37;;;;;;;13.02;7.40;;;;;;;18.71;42.34;100572.41;5036458;28;20045;-75
2022/12/13 00:59:04;;;;;;;8.77;7.13;;;;;;;18.71;42.28;100566.19;5036506;28;20045;-75
2022/12/13 01:01:35;;;;;;;9.07;6.40;;;;;;;18.71;42.25;100560.81;5036270;28;20116;-75
2022/12/13 01:04:05;;;;;;;8.82;7.18;;;;;;;18.71;42.33;100569.72;5036413;28;20492;-75
2022/12/13 01:06:37;;;;;;;7.60;5.97;;;;;;;18.71;41.94;100571.56;5036402;28;20477;-75
2022/12/13 01:09:11;;;;;;;7.93;6.35;;;;;;;18.70;42.18;100578.75;5036271;28;20045;-75
2022/12/13 01:11:38;;;;;;;9.27;7.28;;;;;;;18.70;42.02;100581.44;5036417;28;20049;-75
2022/12/13 01:14:05;;;;;;;8.45;6.68;;;;;;;18.70;41.96;100577.91;5035983;28;20052;-75
2022/12/13 01:16:33;;;;;;;11.05;7.55;;;;;;;18.70;42.02;100594.00;5035931;28;20049;-75
2022/12/13 01:19:00;;;;;;;9.25;6.65;;;;;;;18.70;41.94;100589.47;5035981;28;20056;-75
2022/12/13 01:21:28;;;;;;;9.13;7.10;;;;;;;18.69;41.88;100589.59;5036068;28;20079;-75
2022/12/13 01:24:04;;;;;;;9.27;7.05;;;;;;;18.69;41.95;100593.13;5035964;28;20397;-75
2022/12/13 01:26:32;;;;;;;9.38;7.07;;;;;;;18.68;42.03;100596.78;5036002;28;20045;-75
2022/12/13 01:29:01;;;;;;;10.23;7.85;;;;;;;18.68;42.05;100594.09;5035763;28;20052;-76
2022/12/13 01:31:28;;;;;;;9.20;6.90;;;;;;;18.68;41.95;100594.09;5035811;28;20049;-75
2022/12/13 01:33:57;;;;;;;9.57;7.40;;;;;;;18.67;41.99;100586.19;5035722;28;20045;-75
2022/12/13 01:36:24;;;;;;;10.45;7.88;;;;;;;18.66;42.07;100588.00;5035601;28;20053;-75
2022/12/13 01:38:55;;;;;;;8.95;7.30;;;;;;;18.66;42.22;100588.00;5035716;28;20045;-75
2022/12/13 01:41:27;;;;;;;10.40;8.05;;;;;;;18.66;41.95;100582.66;5035615;28;20053;-75
2022/12/13 01:44:01;;;;;;;10.77;7.80;;;;;;;18.66;41.91;100588.00;5034410;28;20048;-75
2022/12/13 01:46:32;;;;;;;11.70;7.72;;;;;;;18.65;42.20;100586.31;5035771;28;20064;-75
2022/12/13 01:48:59;;;;;;;10.15;7.43;;;;;;;18.66;42.12;100584.47;5035507;28;20049;-76
2022/12/13 01:51:52;;;;;;;10.82;7.78;;;;;;;18.65;42.22;100589.00;5035303;28;20515;-75
2022/12/13 01:54:29;;;;;;;11.32;7.88;;;;;;;18.65;42.46;100582.78;5034032;28;20052;-76
2022/12/13 01:57:05;;;;;;;9.73;7.55;;;;;;;18.64;42.15;100575.75;5035455;28;20072;-75
2022/12/13 01:59:37;;;;;;;;;;;;;;;18.63;42.29;100585.59;5035786;28;20041;-75
2022/12/13 02:02:06;;;;;;;11.18;7.25;;;;;;;18.63;42.42;100574.88;5035423;28;19921;-75
2022/12/13 02:04:45;;;;;;;9.43;7.07;;;;;;;18.63;42.32;100574.03;5035004;28;20473;-75
2022/12/13 02:07:17;;;;;;;9.63;7.90;;;;;;;18.62;42.45;100573.16;5035094;28;20057;-75
2022/12/13 02:09:54;;;;;;;9.25;7.25;;;;;;;18.61;42.50;100568.81;5035067;28;20041;-75
2022/12/13 02:12:29;;;;;;;10.20;8.05;;;;;;;18.61;42.46;100566.13;5033776;28;20049;-75
2022/12/13 02:15:03;;;;;;;9.30;7.65;;;;;;;18.60;42.43;100553.72;5034831;28;20049;-75
2022/12/13 02:17:52;;;;;;;10.50;8.75;;;;;;;18.59;42.49;100543.94;5034640;28;20045;-75
2022/12/13 02:20:20;;;;;;;9.68;7.90;;;;;;;18.60;42.55;100550.19;5034389;28;20045;-76
2022/12/13 02:23:30;;;;;;;10.13;7.65;;;;;;;18.60;42.52;100556.38;5035057;28;20481;-76
2022/12/13 02:26:06;;;;;;;7.97;6.85;;;;;;;18.59;42.43;100546.63;4973992;28;20058;-75
2022/12/13 02:29:11;;;;;;;10.10;7.80;;;;;;;18.60;42.42;100552.84;4973942;28;20058;-75
2022/12/13 02:32:05;;;;;;;10.40;8.30;;;;;;;18.57;42.49;100553.97;4974130;28;20535;-76
2022/12/13 02:34:33;;;;;;;10.90;7.65;;;;;;;18.58;42.49;100552.13;4973683;28;20055;-76
2022/12/13 02:37:11;;;;;;;10.48;7.68;;;;;;;18.57;42.49;100553.97;4974020;28;20431;-76
2022/12/13 02:39:59;;;;;;;10.50;8.40;;;;;;;18.57;42.61;100553.97;4973590;28;20054;-76
2022/12/13 02:42:36;;;;;;;10.52;7.93;;;;;;;18.57;42.52;100548.59;4973536;28;20073;-76
2022/12/13 02:45:19;;;;;;;11.25;8.65;;;;;;;18.56;42.39;100548.75;4973827;28;20057;-76
2022/12/13 02:47:48;;;;;;;;;;;;;;;18.56;42.58;100556.78;4974051;28;20055;-76
2022/12/13 02:50:16;;;;;;;10.82;8.05;;;;;;;18.56;42.51;100552.28;4973647;28;19929;-75
2022/12/13 02:52:45;;;;;;;9.90;7.65;;;;;;;18.55;42.61;100550.56;4973547;28;20046;-75
2022/12/13 02:55:15;;;;;;;9.95;8.48;;;;;;;18.55;42.63;100542.50;4973316;28;20055;-75
2022/12/13 02:57:44;;;;;;;9.80;7.75;;;;;;;18.54;42.71;100549.72;4973340;28;20062;-76
2022/12/13 03:00:29;;;;;;;10.68;8.55;;;;;;;18.54;42.62;100548.88;4973427;28;20058;-75
2022/12/13 03:03:18;;;;;;;9.32;7.88;;;;;;;18.54;42.81;100559.59;4999103;28;20057;-76
2022/12/13 03:09:08;;;;;;;9.27;7.40;;;;;;;18.54;42.87;100546.19;5034251;28;20045;-76
2022/12/13 03:15:09;;;;;;;11.73;8.73;;;;;;;18.53;42.85;100531.09;4992511;28;20415;-75
2022/12/13 03:17:50;;;;;;;10.02;7.65;;;;;;;18.52;42.89;100519.53;4992597;28;20510;-76
2022/12/13 03:20:24;;;;;;;10.90;8.30;;;;;;;18.52;42.87;100505.28;4992601;28;20069;-76
2022/12/13 03:22:52;;;;;;;9.90;7.85;;;;;;;18.51;42.93;100514.28;4992523;28;20093;-76
2022/12/13 03:25:22;;;;;;;11.15;7.88;;;;;;;18.51;42.86;100525.88;4992454;28;20050;-75
2022/12/13 03:28:00;;;;;;;9.57;7.82;;;;;;;18.51;42.85;100528.56;4992894;28;20054;-76
2022/12/13 03:30:32;;;;;;;10.68;8.35;;;;;;;18.51;43.06;100533.03;4992511;28;20051;-76
2022/12/13 03:33:00;;;;;;;10.98;8.00;;;;;;;18.51;43.08;100539.28;4992472;28;20062;-76
2022/12/13 03:35:27;;;;;;;8.90;7.38;;;;;;;18.51;43.09;100533.03;4992601;28;20054;-75
2022/12/13 03:38:12;;;;;;;8.23;7.25;;;;;;;18.50;43.13;100534.88;4992759;28;20058;-76
2022/12/13 03:40:55;;;;;;;9.35;7.53;;;;;;;18.49;43.21;100530.50;4992276;28;20066;-76
2022/12/13 03:43:22;;;;;;;10.73;8.75;;;;;;;18.50;43.33;100536.72;4992400;28;20061;-75
2022/12/13 03:45:51;;;;;;;10.48;7.95;;;;;;;18.48;43.17;100526.13;4992384;28;20061;-76
2022/12/13 03:48:19;;;;;;;11.13;8.23;;;;;;;18.48;43.22;100522.59;4992442;28;20557;-75
2022/12/13 03:50:50;;;;;;;10.35;8.52;;;;;;;18.48;43.10;100528.81;4999298;28;20073;-76
2022/12/13 03:53:18;;;;;;;8.98;7.80;;;;;;;18.48;43.09;100519.94;5035667;28;20049;-76
2022/12/13 03:55:49;;;;;;;11.13;8.93;;;;;;;18.47;42.99;100516.41;5036309;28;20052;-75
2022/12/13 03:58:17;;;;;;;11.98;9.00;;;;;;;18.47;43.21;100520.88;5037700;28;20042;-75
2022/12/13 04:00:44;;;;;;;10.18;8.57;;;;;;;18.47;42.91;100523.56;5037802;28;20057;-75
2022/12/13 04:03:11;;;;;;;10.65;9.05;;;;;;;18.46;43.11;100521.88;5037711;28;20045;-76
2022/12/13 04:05:39;;;;;;;10.45;8.55;;;;;;;18.46;43.05;100519.19;5037755;28;20068;-76
2022/12/13 04:08:06;;;;;;;11.73;8.73;;;;;;;18.46;43.10;100511.16;5037509;28;20048;-75
2022/12/13 04:10:48;;;;;;;10.27;8.80;;;;;;;18.46;43.05;100519.19;5037343;28;20045;-75
2022/12/13 04:13:31;;;;;;;10.43;8.23;;;;;;;18.46;43.17;100533.44;5037344;28;20045;-75
2022/12/13 04:16:00;;;;;;;10.27;8.07;;;;;;;18.46;43.23;100529.91;5037410;28;20485;-75
2022/12/13 04:18:27;;;;;;;12.50;9.68;;;;;;;18.45;43.03;100534.44;5037290;28;20052;-76
2022/12/13 04:20:56;;;;;;;10.93;8.77;;;;;;;18.44;43.09;100529.22;5037057;28;20048;-75
2022/12/13 04:23:23;;;;;;;9.68;8.27;;;;;;;18.44;43.04;100532.75;5037168;28;20057;-76
2022/12/13 04:25:51;;;;;;;9.07;7.85;;;;;;;18.44;43.16;100522.03;5037036;28;20048;-76
2022/12/13 04:28:18;;;;;;;9.98;8.02;;;;;;;18.44;43.07;100534.56;5037046;28;20389;-76
2022/12/13 04:30:50;;;;;;;9.18;8.27;;;;;;;18.43;43.15;100539.09;5036702;28;20052;-76
2022/12/13 04:33:23;;;;;;;10.50;8.73;;;;;;;18.43;43.12;100522.13;5037021;28;20056;-76
2022/12/13 04:35:51;;;;;;;9.75;8.02;;;;;;;18.43;43.20;100531.06;5036985;28;20052;-76
2022/12/13 04:38:19;;;;;;;10.10;7.63;;;;;;;18.43;43.25;100538.22;5037074;28;20046;-76
2022/12/13 04:40:46;;;;;;;10.70;8.38;;;;;;;18.42;43.54;100534.69;5036686;28;20064;-75
2022/12/13 04:43:14;;;;;;;13.20;8.90;;;;;;;18.42;43.36;100523.97;5036725;28;20049;-75
2022/12/13 04:45:41;;;;;;;10.02;8.00;;;;;;;18.42;43.47;100528.50;5034898;28;20041;-76
2022/12/13 04:48:09;;;;;;;9.73;7.72;;;;;;;18.42;43.39;100532.00;5036234;28;20056;-76
2022/12/13 04:50:36;;;;;;;8.88;7.45;;;;;;;18.42;43.39;100532.00;5036620;28;20511;-76
2022/12/13 04:53:03;;;;;;;10.85;8.98;;;;;;;18.41;43.46;100519.59;5036805;28;20041;-76
2022/12/13 04:55:31;;;;;;;10.77;9.02;;;;;;;18.40;43.47;100535.81;5036437;28;20048;-76
2022/12/13 04:57:58;;;;;;;11.45;8.10;;;;;;;18.40;43.43;100531.31;5035148;28;20057;-76
2022/12/13 05:00:25;;;;;;;9.00;7.57;;;;;;;18.41;43.45;100538.38;5036549;28;20469;-76
2022/12/13 05:02:53;;;;;;;10.07;7.20;;;;;;;18.41;43.59;100534.84;5036296;28;20045;-76
2022/12/13 05:05:21;;;;;;;10.73;7.80;;;;;;;18.40;43.59;100538.50;5036371;28;20042;-75
2022/12/13 05:07:48;;;;;;;9.10;7.50;;;;;;;18.38;43.50;100527.91;5036194;28;20482;-75
2022/12/13 05:10:16;;;;;;;9.82;7.75;;;;;;;18.39;43.46;100531.44;5036062;28;20046;-75
2022/12/13 05:13:04;;;;;;;9.88;8.30;;;;;;;18.39;43.40;100531.44;5036155;28;20485;-75
2022/12/13 05:15:32;;;;;;;10.68;7.95;;;;;;;18.39;43.42;100528.75;5036077;28;20045;-75
2022/12/13 05:18:04;;;;;;;11.68;8.23;;;;;;;18.39;43.41;100531.44;5036143;28;20045;-75
2022/12/13 05:20:38;;;;;;;13.40;7.50;;;;;;;18.39;43.30;100534.97;5036258;28;20378;-75
2022/12/13 05:23:06;;;;;;;11.40;8.32;;;;;;;18.38;43.41;100532.41;5035878;28;20057;-76
2022/12/13 05:25:35;;;;;;;10.02;7.63;;;;;;;18.37;43.42;100528.88;5035952;28;20500;-75
2022/12/13 05:28:04;;;;;;;13.55;9.30;;;;;;;18.37;43.49;100536.94;5036057;28;20445;-75
2022/12/13 05:30:52;;;;;;;9.13;7.75;;;;;;;18.37;43.41;100536.09;5035995;28;20045;-75
2022/12/13 05:33:21;;;;;;;8.82;7.30;;;;;;;18.36;43.59;100537.06;5034633;28;20068;-75
2022/12/13 05:35:49;;;;;;;9.73;8.05;;;;;;;18.35;43.62;100528.19;5035619;28;20057;-75
2022/12/13 05:38:21;;;;;;;10.13;7.65;;;;;;;18.36;43.57;100534.41;5035686;28;20049;-76
2022/12/13 05:40:48;;;;;;;11.35;8.15;;;;;;;18.34;43.65;100526.47;5035900;28;20076;-76
2022/12/13 05:43:15;;;;;;;9.77;7.03;;;;;;;18.35;43.55;100524.63;5035857;28;20045;-75
2022/12/13 05:45:49;;;;;;;9.23;7.90;;;;;;;18.34;43.75;100526.47;5035700;28;20461;-75
2022/12/13 05:48:17;;;;;;;8.55;6.93;;;;;;;18.34;43.59;100526.47;5035361;28;20045;-75
2022/12/13 05:50:51;;;;;;;9.57;7.93;;;;;;;18.34;43.56;100522.94;5035665;28;20053;-75
2022/12/13 05:53:40;;;;;;;8.52;6.65;;;;;;;18.33;43.86;100519.41;5033984;28;20401;-75
2022/12/13 05:56:10;;;;;;;8.80;7.40;;;;;;;18.33;43.75;100516.75;5035074;28;20045;-75
2022/12/13 05:58:40;;;;;;;10.30;7.07;;;;;;;18.34;43.78;100506.88;5034433;28;20056;-75
2022/12/13 06:01:10;;;;;;;8.93;7.03;;;;;;;18.33;43.82;100513.22;5035399;28;20045;-76
2022/12/13 06:03:38;;;;;;;8.20;7.22;;;;;;;18.32;43.98;100500.81;5035287;28;20045;-76
2022/12/13 06:06:07;;;;;;;9.05;7.35;;;;;;;18.32;44.01;100500.81;5034973;28;20052;-76
2022/12/13 06:08:35;;;;;;;9.98;7.65;;;;;;;18.31;44.14;100489.25;5033701;28;20080;-76
2022/12/13 06:11:04;;;;;;;9.02;7.07;;;;;;;18.32;44.03;100498.13;5035252;28;20072;-77
2022/12/13 06:13:40;;;;;;;10.48;7.70;;;;;;;18.32;44.01;100496.28;5035270;28;20049;-76
2022/12/13 06:16:11;;;;;;;9.43;7.53;;;;;;;18.32;44.05;100500.81;5034270;28;20045;-76
2022/12/13 06:18:51;;;;;;;8.27;6.60;;;;;;;18.30;44.29;100498.25;5035145;28;20045;-76
2022/12/13 06:21:33;;;;;;;9.23;7.20;;;;;;;18.31;44.03;100496.41;5034920;28;20052;-76
2022/12/13 06:24:16;;;;;;;9.75;7.65;;;;;;;18.31;44.19;100508.00;5034886;28;20049;-76
2022/12/13 06:26:43;;;;;;;8.82;6.68;;;;;;;18.31;44.03;100512.47;5034826;28;20038;-76
2022/12/13 06:29:18;;;;;;;9.18;7.15;;;;;;;18.31;44.26;100518.72;5034853;28;20052;-76
2022/12/13 06:32:01;;;;;;;7.55;6.45;;;;;;;18.29;44.22;100518.84;5033527;28;20390;-75
2022/12/13 06:34:32;;;;;;;8.18;6.57;;;;;;;18.29;44.06;100513.47;5034794;28;20068;-75
2022/12/13 06:37:02;;;;;;;8.65;7.07;;;;;;;18.28;44.04;100517.13;5034891;28;20378;-76
2022/12/13 06:39:30;;;;;;;9.50;7.05;;;;;;;18.29;44.06;100520.66;5034409;28;20056;-76
2022/12/13 06:42:01;;;;;;;8.38;6.90;;;;;;;18.28;43.91;100527.00;5032967;28;20048;-75
2022/12/13 06:44:28;;;;;;;10.20;6.75;;;;;;;18.28;43.88;100535.06;5033022;28;20049;-75
2022/12/13 06:46:55;;;;;;;8.98;7.05;;;;;;;18.27;44.04;100539.56;5034422;28;20050;-74
2022/12/13 06:49:41;;;;;;;8.43;7.35;;;;;;;18.27;44.00;100541.38;5034549;28;20420;-75
2022/12/13 06:52:11;;;;;;;10.18;6.88;;;;;;;18.27;44.11;100546.72;5034438;28;20045;-75
2022/12/13 06:54:40;;;;;;;8.63;6.88;;;;;;;18.26;44.02;100548.56;5034315;28;20045;-75
2022/12/13 06:57:08;;;;;;;7.60;5.95;;;;;;;18.27;43.99;100555.66;5034408;28;20037;-75
2022/12/13 06:59:36;;;;;;;9.07;7.00;;;;;;;18.27;44.28;100552.09;5034362;28;20052;-76
2022/12/13 07:02:04;;;;;;;7.70;6.50;;;;;;;18.26;44.35;100545.88;5034311;28;20045;-79
2022/12/13 07:04:32;;;;;;;7.63;6.50;;;;;;;18.26;44.18;100539.69;5032832;28;20055;-79
2022/12/13 07:06:59;;;;;;;7.30;6.22;;;;;;;18.26;44.13;100539.69;5034384;28;20041;-76
2022/12/13 07:09:31;;;;;;;8.18;6.50;;;;;;;18.25;44.31;100541.50;5033922;28;20045;-75
2022/12/13 07:11:59;;;;;;;7.82;5.63;;;;;;;18.26;44.44;100545.03;5034055;28;20421;-76
2022/12/13 07:14:27;;;;;;;8.48;6.57;;;;;;;18.25;44.46;100538.84;5032937;28;20069;-80
2022/12/13 07:16:54;;;;;;;9.23;6.38;;;;;;;18.26;44.26;100545.03;5035211;28;20482;-79
2022/12/13 07:19:30;;;;;;;7.28;5.93;;;;;;;18.27;44.50;100546.72;5034598;28;20049;-79
2022/12/13 07:22:08;;;;;;;8.23;6.00;;;;;;;18.27;44.49;100547.59;5035362;28;20401;-78
2022/12/13 07:24:35;;;;;;;7.70;5.82;;;;;;;18.28;44.80;100548.44;5034997;28;20157;-79
2022/12/13 07:27:03;;;;;;;8.07;6.97;;;;;;;18.28;44.47;100543.94;5035010;28;20046;-79
2022/12/13 07:29:30;;;;;;;7.53;6.28;;;;;;;18.29;44.43;100542.94;5034567;28;20045;-80
2022/12/13 07:31:58;;;;;;;8.07;6.60;;;;;;;18.28;44.36;100554.66;5033190;28;20049;-76
2022/12/13 07:34:29;;;;;;;11.82;7.03;;;;;;;18.28;44.05;100562.69;5032024;28;20056;-78
2022/12/13 07:36:57;;;;;;;9.00;6.97;;;;;;;18.29;44.17;100559.03;5033822;28;20056;-79
2022/12/13 07:39:25;;;;;;;8.38;6.47;;;;;;;18.29;44.13;100559.03;5034304;28;20045;-79
2022/12/13 07:41:54;;;;;;;10.10;6.85;;;;;;;18.31;44.11;100566.06;5034483;28;20045;-80
2022/12/13 07:44:22;;;;;;;9.40;6.07;;;;;;;18.31;44.34;100572.31;5034057;28;20049;-78
2022/12/13 07:46:50;;;;;;;7.32;6.25;;;;;;;18.31;44.66;100560.72;5034606;28;20060;-81
2022/12/13 07:49:18;;;;;;;9.85;6.63;;;;;;;18.33;44.36;100562.28;5034875;28;20041;-80
2022/12/13 07:51:46;;;;;;;9.05;6.43;;;;;;;18.33;44.44;100569.50;5035201;28;20060;-84
2022/12/13 07:54:14;;;;;;;9.27;6.85;;;;;;;18.33;44.19;100573.00;5034291;28;20049;-82
2022/12/13 07:56:41;;;;;;;12.75;8.38;;;;;;;18.34;42.92;100573.88;5032908;28;20065;-76
2022/12/13 07:59:15;;;;;;;9.68;8.25;;;;;;;18.31;42.42;100575.00;5031129;28;20058;-76
2022/12/13 08:01:56;;;;;;;11.38;8.88;;;;;;;18.28;41.79;100581.44;5013204;28;20069;-81
2022/12/13 08:04:28;;;;;;;13.52;8.93;;;;;;;18.27;41.53;100574.41;5014276;28;20501;-80
2022/12/13 08:07:08;;;;;;;10.63;8.98;;;;;;;18.25;41.30;100584.38;5013417;28;20493;-79
2022/12/13 08:09:36;;;;;;;11.98;9.10;;;;;;;18.24;41.21;100587.22;5031206;28;20057;-78
2022/12/13 08:12:04;;;;;;;10.05;8.60;;;;;;;18.22;40.48;100587.31;5033721;28;20056;-78
2022/12/13 08:14:32;;;;;;;14.23;9.27;;;;;;;18.22;40.44;100586.47;5034865;28;20057;-84
2022/12/13 08:16:59;;;;;;;11.02;8.32;;;;;;;18.21;40.99;100591.00;5035283;28;20477;-82
2022/12/13 08:19:27;;;;;;;14.30;7.97;;;;;;;18.23;41.52;100596.19;5035048;28;20060;-80
2022/12/13 08:21:55;;;;;;;14.50;8.38;;;;;;;18.24;40.26;100600.59;5033652;28;20052;-78
2022/12/13 08:24:29;;;;;;;9.68;7.45;;;;;;;18.23;40.34;100593.53;5034207;28;20057;-78
2022/12/13 08:26:59;;;;;;;12.80;8.27;;;;;;;18.25;41.53;100597.78;5034729;28;20420;-77
2022/12/13 08:29:33;;;;;;;9.32;7.85;;;;;;;18.25;41.53;100587.06;5033258;28;20045;-79
2022/12/13 08:32:05;;;;;;;9.85;7.43;;;;;;;18.27;41.47;100586.91;5033974;28;20052;-77
2022/12/13 08:34:33;;;;;;;9.30;6.80;;;;;;;18.26;41.81;100591.44;5034196;28;20052;-77
2022/12/13 08:37:05;;;;;;;9.30;7.72;;;;;;;18.27;41.51;100601.19;5033797;28;20037;-77
2022/12/13 08:39:35;;;;;;;9.57;7.07;;;;;;;18.27;41.80;100601.19;5036038;28;20060;-77
2022/12/13 08:42:13;;;;;;;8.55;6.38;;;;;;;18.27;42.21;100601.19;5037383;28;20049;-77
2022/12/13 08:44:46;;;;;;;10.85;7.03;;;;;;;18.27;41.99;100606.56;5036790;28;20048;-78
2022/12/13 08:47:14;;;;;;;9.60;6.70;;;;;;;18.28;41.17;100607.41;5036297;28;20053;-77
2022/12/13 08:49:58;;;;;;;8.48;6.60;;;;;;;18.28;40.89;100600.22;5037425;28;20042;-77
2022/12/13 08:52:34;;;;;;;9.68;5.93;;;;;;;18.28;41.01;100610.94;5037269;28;20060;-77
2022/12/13 08:55:12;;;;;;;10.20;7.55;;;;;;;18.28;41.77;100610.94;5037242;28;20045;-80
2022/12/13 08:57:41;;;;;;;6.95;5.80;;;;;;;18.28;42.41;100605.56;5036410;28;20393;-77
2022/12/13 09:00:18;;;;;;;7.82;6.80;;;;;;;18.29;42.09;100609.94;5036930;28;20382;-77
2022/12/13 09:02:46;;;;;;;9.32;5.68;;;;;;;18.29;42.72;100609.94;5036582;28;20053;-77
2022/12/13 09:05:13;;;;;;;8.73;6.60;;;;;;;18.29;42.46;100607.25;5036133;28;20409;-75
2022/12/13 09:08:02;;;;;;;10.65;7.20;;;;;;;18.29;41.78;100625.19;5036188;28;20041;-77
2022/12/13 09:10:57;;;;;;;8.38;5.88;;;;;;;18.29;42.55;100622.50;5036905;28;20057;-77
2022/12/13 09:13:31;;;;;;;8.65;6.40;;;;;;;18.29;42.33;100627.84;5035969;28;20041;-75
2022/12/13 09:16:22;;;;;;;9.73;6.07;;;;;;;18.29;41.86;100622.50;5036277;28;20050;-79
2022/12/13 09:18:54;;;;;;;8.90;6.30;;;;;;;18.28;41.83;100628.84;5036412;28;20042;-75
2022/12/13 09:21:23;;;;;;;13.30;6.28;;;;;;;18.28;41.53;100632.38;5036144;28;20060;-76
2022/12/13 09:23:59;;;;;;;8.15;6.20;;;;;;;18.28;41.22;100635.03;5036418;28;20058;-80
2022/12/13 09:26:28;;;;;;;9.23;6.15;;;;;;;18.28;41.68;100634.19;5036670;28;20053;-78
2022/12/13 09:29:05;;;;;;;7.28;5.97;;;;;;;18.27;41.63;100633.34;5036854;28;20049;-80
2022/12/13 09:31:39;;;;;;;8.20;5.53;;;;;;;18.27;41.18;100636.03;5036115;28;20049;-79
2022/12/13 09:34:08;;;;;;;9.70;6.60;;;;;;;18.26;41.23;100631.63;5036243;28;20636;-74
2022/12/13 09:36:36;;;;;;;9.27;7.43;;;;;;;18.26;41.81;100626.28;5036098;28;20046;-76
2022/12/13 09:39:03;;;;;;;11.02;6.88;;;;;;;18.26;41.62;100626.28;5035904;28;20038;-76
2022/12/13 09:41:41;;;;;;;7.65;5.70;;;;;;;18.28;42.03;100627.00;5035193;28;20072;-77
2022/12/13 09:44:19;;;;;;;10.82;5.50;;;;;;;18.27;41.81;100630.69;5034157;28;20511;-80
2022/12/13 09:47:03;;;;;;;9.80;6.47;;;;;;;18.28;42.08;100632.38;5034285;28;20060;-77
2022/12/13 09:49:43;;;;;;;10.40;6.43;;;;;;;18.29;42.24;100634.06;5035518;28;20045;-77
2022/12/13 09:52:23;;;;;;;7.57;5.22;;;;;;;18.30;41.77;100637.59;5035763;28;20053;-77
2022/12/13 09:54:56;;;;;;;7.65;5.90;;;;;;;18.29;41.95;100635.88;5035337;28;20045;-75
2022/12/13 09:57:30;;;;;;;9.73;6.65;;;;;;;18.28;42.53;100635.03;5035216;28;20060;-77
2022/12/13 10:00:06;;;;;;;6.90;5.45;;;;;;;18.28;42.38;100635.03;5034329;28;20053;-76
2022/12/13 10:02:44;;;;;;;8.57;6.03;;;;;;;18.29;42.18;100641.25;5041902;28;20045;-75
2022/12/13 10:05:17;;;;;;;6.10;4.85;;;;;;;18.29;41.91;100639.41;5035318;28;20046;-78
2022/12/13 10:07:52;;;;;;;9.55;5.22;;;;;;;18.29;42.09;100642.09;5034437;28;20046;-76
2022/12/13 10:10:20;;;;;;;8.93;5.13;;;;;;;18.29;42.24;100643.94;5035444;28;20056;-78
2022/12/13 10:12:55;;;;;;;6.63;5.35;;;;;;;18.29;42.16;100646.59;5035299;28;20056;-76
2022/12/13 10:15:23;;;;;;;6.18;4.72;;;;;;;18.29;42.27;100644.78;5035150;28;20049;-79
2022/12/13 10:17:51;;;;;;;6.47;4.90;;;;;;;18.29;42.35;100639.41;5035462;28;20041;-78
2022/12/13 10:20:27;;;;;;;6.45;4.88;;;;;;;18.29;42.33;100628.69;5035522;28;20045;-77
2022/12/13 10:22:55;;;;;;;8.32;5.05;;;;;;;18.29;42.43;100628.69;5034955;28;20052;-76
2022/12/13 10:25:53;;;;;;;9.55;5.90;;;;;;;18.29;42.70;100626.03;5033382;28;20171;-78
2022/12/13 10:28:33;;;;;;;9.23;5.15;;;;;;;18.30;42.49;100634.91;5034246;28;20359;-77
2022/12/13 10:31:01;;;;;;;7.25;4.65;;;;;;;18.28;42.71;100637.72;5034564;28;20405;-76
2022/12/13 10:33:28;;;;;;;11.07;5.00;;;;;;;18.28;42.65;100640.41;5034418;28;20045;-77
2022/12/13 10:36:03;;;;;;;7.25;5.07;;;;;;;18.28;42.42;100637.72;5035292;28;20050;-77
2022/12/13 10:38:41;;;;;;;8.57;5.45;;;;;;;18.29;42.60;100631.38;5033797;28;20038;-77
2022/12/13 10:41:38;;;;;;;6.68;5.35;;;;;;;18.28;42.28;100627.00;5033754;28;20125;-77
2022/12/13 10:44:23;;;;;;;6.03;4.80;;;;;;;18.28;42.21;100618.97;5031571;28;20497;-77
2022/12/13 10:47:10;;;;;;;6.57;5.15;;;;;;;18.28;42.19;100618.97;5033099;28;20045;-78
2022/12/13 10:49:52;;;;;;;6.53;5.22;;;;;;;18.29;42.52;100625.19;5035458;28;20054;-76
2022/12/13 10:52:28;;;;;;;7.80;4.97;;;;;;;18.29;43.04;100619.81;5035307;28;20049;-74
2022/12/13 10:55:16;;;;;;;9.07;4.50;;;;;;;18.31;48.05;100612.50;5034857;28;20478;-76
2022/12/13 10:57:56;;;;;;;8.10;4.68;;;;;;;18.30;49.51;100610.78;5034277;28;20072;-75
2022/12/13 11:00:36;;;;;;;7.78;5.18;;;;;;;18.27;49.43;100611.91;5034107;28;20045;-75
2022/12/13 11:03:04;;;;;;;7.35;5.70;;;;;;;18.26;51.09;100609.34;5033779;28;20048;-76
2022/12/13 11:05:34;;;;;;;6.25;4.68;;;;;;;18.24;51.65;100604.13;5034155;28;20046;-76
2022/12/13 11:08:31;;;;;;;6.20;4.78;;;;;;;18.22;52.65;100598.03;5034055;28;20042;-77
2022/12/13 11:11:02;;;;;;;6.53;4.82;;;;;;;18.21;52.76;100591.00;5025791;28;20401;-78
2022/12/13 11:13:37;;;;;;;7.57;4.70;;;;;;;18.20;52.16;100596.50;5034220;28;20053;-84
2022/12/13 11:16:37;;;;;;;9.13;4.60;;;;;;;18.19;54.18;100592.97;5034486;28;20056;-77
2022/12/13 11:19:17;;;;;;;6.28;4.70;;;;;;;18.18;53.11;100593.91;5030500;28;20060;-77
2022/12/13 11:21:48;;;;;;;6.63;4.75;;;;;;;18.18;53.25;100598.44;5033599;28;20480;-76
2022/12/13 11:24:37;;;;;;;6.50;4.65;;;;;;;18.17;53.10;100592.22;5033764;28;20052;-76
2022/12/13 11:27:27;;;;;;;6.57;4.70;;;;;;;18.17;52.42;100583.34;5033492;28;20045;-77
2022/12/13 11:31:04;;;;;;;7.25;4.75;;;;;;;18.16;54.98;100582.50;5031272;28;20393;-76
2022/12/13 11:33:53;;;;;;;7.40;4.97;;;;;;;18.16;53.86;100577.13;5033930;28;20053;-75
2022/12/13 11:37:02;;;;;;;7.53;4.88;;;;;;;18.15;54.37;100580.81;5032756;28;20045;-75
2022/12/13 11:39:32;;;;;;;5.55;4.50;;;;;;;18.15;53.93;100574.56;5033403;28;20045;-76
2022/12/13 11:42:12;;;;;;;8.93;5.05;;;;;;;18.15;53.59;100579.94;5033715;28;20058;-76
2022/12/13 11:44:52;;;;;;;6.30;4.88;;;;;;;18.15;53.33;100580.81;5033662;28;20492;-78
2022/12/13 11:47:25;;;;;;;6.85;4.60;;;;;;;18.14;52.71;100584.44;5032557;28;20512;-77
2022/12/13 11:49:55;;;;;;;6.43;5.00;;;;;;;18.14;52.30;100576.41;5033716;28;20462;-77
2022/12/13 11:52:43;;;;;;;6.68;4.72;;;;;;;18.15;53.16;100579.94;5031610;28;20053;-75
2022/12/13 11:55:20;;;;;;;6.55;4.70;;;;;;;18.14;52.98;100581.75;5032525;28;20060;-75
2022/12/13 11:57:59;;;;;;;6.72;5.00;;;;;;;18.14;53.78;100579.09;5033744;28;20049;-75